Mars — XPC8385 — position and weather

sailwx.info

Track history (hours):
 
Tides and Currents Weather Stations Pressure Air Temp Water Temp Dewpoint Dewpoint Depression Visibility Wind Speed Wind Dir Waves Ship Positions

Mars

Last reported at 2016-Feb-09 22:29 UTC. Time now 2016-Feb-09 22:35 UTC.
Position N 55°17' E 014°48'.

Length 14 m; draft 1.7 m.

Type: Pilot. MMSI: 219001058.

Date/timePositionNaut miles runAvg speedWind from/ knotsBaromVisibWave heightAir tempDewpointWater temp
2016-Feb-09 22:29N 55°17' E 014°48'0 0.0
2016-Feb-09 21:29N 55°17' E 014°48'0 0.0
2016-Feb-09 20:17N 55°17' E 014°48'0 0.0
2016-Feb-09 19:17N 55°17' E 014°48'0 0.0
2016-Feb-09 18:29N 55°17' E 014°48'0 0.0
2016-Feb-09 17:25N 55°17' E 014°48'0 0.0
2016-Feb-09 16:26N 55°17' E 014°48'0 0.0
2016-Feb-09 15:32N 55°17' E 014°48'0 0.0
2016-Feb-09 14:26N 55°17' E 014°48'0 0.0
2016-Feb-09 13:20N 55°17' E 014°48'0 0.0
2016-Feb-09 12:32N 55°17' E 014°48'0 0.0
2016-Feb-09 11:32N 55°17' E 014°48'2 1.9
2016-Feb-09 10:33N 55°18' E 014°49'2 1.8
2016-Feb-09 09:32N 55°17' E 014°48'0 0.0
2016-Feb-09 08:32N 55°17' E 014°48'2 2.1
2016-Feb-09 07:33N 55°17' E 014°52'2 1.9
2016-Feb-09 06:28N 55°17' E 014°48'0 0.0
2016-Feb-09 05:28N 55°17' E 014°48'0 0.0
2016-Feb-09 04:22N 55°17' E 014°48'0 0.0
2016-Feb-09 03:28N 55°17' E 014°48'0 0.0
2016-Feb-09 02:28N 55°17' E 014°48'0 0.0
2016-Feb-09 01:34N 55°17' E 014°48'0 0.0
2016-Feb-09 00:27N 55°17' E 014°48'0 0.0
2016-Feb-08 23:33N 55°17' E 014°48'2 1.9
2016-Feb-08 22:34N 55°18' E 014°46'2 1.8
2016-Feb-08 21:31N 55°17' E 014°48'0 0.0
2016-Feb-08 20:25N 55°17' E 014°48'0 0.0
2016-Feb-08 19:31N 55°17' E 014°48'0 0.0
2016-Feb-08 18:31N 55°17' E 014°48'0 0.0
2016-Feb-08 17:31N 55°17' E 014°48'0 0.0
2016-Feb-08 16:31N 55°17' E 014°48'0 0.0
2016-Feb-08 15:31N 55°17' E 014°48'0 0.0
2016-Feb-08 14:31N 55°17' E 014°48'1 1.0
2016-Feb-08 13:33N 55°18' E 014°49'1 0.8
2016-Feb-08 12:22N 55°17' E 014°48'0 0.0
2016-Feb-08 11:28N 55°17' E 014°48'0 0.0
2016-Feb-08 10:28N 55°17' E 014°48'0 0.0
2016-Feb-08 09:16N 55°17' E 014°48'0 0.0
2016-Feb-08 08:28N 55°17' E 014°48'0 0.0
2016-Feb-08 05:28N 55°17' E 014°48'0 0.0
2016-Feb-08 04:28N 55°17' E 014°48'0 0.0
2016-Feb-08 03:28N 55°17' E 014°48'0 0.0
2016-Feb-08 02:28N 55°17' E 014°48'0 0.0
2016-Feb-08 01:28N 55°17' E 014°48'0 0.0
2016-Feb-08 00:28N 55°17' E 014°48'0 0.0
2016-Feb-07 23:22N 55°17' E 014°48'0 0.0
2016-Feb-07 22:28N 55°17' E 014°48'0 0.0
2016-Feb-07 21:28N 55°17' E 014°48'0 0.0
2016-Feb-07 20:28N 55°17' E 014°48'0 0.0
2016-Feb-07 19:33N 55°17' E 014°48'0 0.0
2016-Feb-07 18:33N 55°17' E 014°48'0 0.0
2016-Feb-07 17:31N 55°17' E 014°48'0 0.0
2016-Feb-07 16:31N 55°17' E 014°48'0 0.0
2016-Feb-07 15:31N 55°17' E 014°48'0 0.0
2016-Feb-07 14:19N 55°17' E 014°48'0 0.0
2016-Feb-07 13:31N 55°17' E 014°48'0 0.0
2016-Feb-07 11:22N 55°17' E 014°48'0 0.0
2016-Feb-07 10:22N 55°17' E 014°48'0 0.0
2016-Feb-07 09:28N 55°17' E 014°48'0 0.0
2016-Feb-07 08:22N 55°17' E 014°48'0 0.0
2016-Feb-07 07:28N 55°17' E 014°48'0 0.0
2016-Feb-07 06:34N 55°17' E 014°48'0 0.0
2016-Feb-07 05:33N 55°17' E 014°48'0 0.0
2016-Feb-07 04:29N 55°17' E 014°48'0 0.0
2016-Feb-07 03:32N 55°17' E 014°48'0 0.0
2016-Feb-07 02:32N 55°17' E 014°48'0 0.0
2016-Feb-07 01:32N 55°17' E 014°48'3 3.4
2016-Feb-07 00:33N 55°20' E 014°46'3 3.2
2016-Feb-06 23:31N 55°17' E 014°48'0 0.0
2016-Feb-06 22:20N 55°17' E 014°48'0 0.0
2016-Feb-06 21:32N 55°17' E 014°48'0 0.0
2016-Feb-06 20:32N 55°17' E 014°48'0 0.0
2016-Feb-06 19:20N 55°17' E 014°48'0 0.0
2016-Feb-06 18:32N 55°17' E 014°48'1 1.1
2016-Feb-06 17:33N 55°18' E 014°48'1 1.0
2016-Feb-06 16:29N 55°17' E 014°48'0 0.0
2016-Feb-06 15:29N 55°17' E 014°48'0 0.0
2016-Feb-06 14:23N 55°17' E 014°48'0 0.0
2016-Feb-06 13:29N 55°17' E 014°48'0 0.0
2016-Feb-06 11:32N 55°17' E 014°48'0 0.0
2016-Feb-06 10:13N 55°17' E 014°48'0 0.0
2016-Feb-06 09:25N 55°17' E 014°48'0 0.0
2016-Feb-06 08:25N 55°17' E 014°48'0 0.0
2016-Feb-06 07:32N 55°17' E 014°48'0 0.0
2016-Feb-06 06:19N 55°17' E 014°48'0 0.0
2016-Feb-06 05:31N 55°17' E 014°48'0 0.0
2016-Feb-06 04:31N 55°17' E 014°48'0 0.0
2016-Feb-06 03:31N 55°17' E 014°48'0 0.0
2016-Feb-06 02:31N 55°17' E 014°48'0 0.0
2016-Feb-06 01:31N 55°17' E 014°48'0 0.0
2016-Feb-06 00:31N 55°17' E 014°48'2 2.1
2016-Feb-05 23:34N 55°17' E 014°52'2 2.0
2016-Feb-05 22:33N 55°17' E 014°48'0 0.0
2016-Feb-05 21:33N 55°17' E 014°48'0 0.0
2016-Feb-05 20:33N 55°17' E 014°48'0 0.0
2016-Feb-05 19:33N 55°17' E 014°48'0 0.0
2016-Feb-05 18:04N 55°17' E 014°48'0 0.0
2016-Feb-05 17:33N 55°17' E 014°48'0 0.0
2016-Feb-05 16:32N 55°17' E 014°48'0 0.0
2016-Feb-05 15:31N 55°17' E 014°48'0 0.0
2016-Feb-05 14:33N 55°17' E 014°48'0 0.0
2016-Feb-05 13:33N 55°17' E 014°48'0 0.0
2016-Feb-05 12:32N 55°17' E 014°48'1 1.3
2016-Feb-05 11:33N 55°17' E 014°50'1 0.6
2016-Feb-05 09:24N 55°17' E 014°48'0 0.0
2016-Feb-05 08:05N 55°17' E 014°48'0 0.0
2016-Feb-05 07:29N 55°17' E 014°48'0 0.0
2016-Feb-05 06:29N 55°17' E 014°48'0 0.0
2016-Feb-05 05:29N 55°17' E 014°48'0 0.0
2016-Feb-05 04:17N 55°17' E 014°48'0 0.0
2016-Feb-05 03:29N 55°17' E 014°48'0 0.0
2016-Feb-05 02:29N 55°17' E 014°48'0 0.0
2016-Feb-05 01:29N 55°17' E 014°48'0 0.0
2016-Feb-05 00:29N 55°17' E 014°48'0 0.0
2016-Feb-04 23:23N 55°17' E 014°48'0 0.0
2016-Feb-04 22:33N 55°17' E 014°48'0 0.0
2016-Feb-04 21:33N 55°17' E 014°48'0 0.0
2016-Feb-04 20:33N 55°17' E 014°48'0 0.0
2016-Feb-04 19:33N 55°17' E 014°48'0 0.0
2016-Feb-04 18:13N 55°17' E 014°48'0 0.0
2016-Feb-04 17:19N 55°17' E 014°48'0 0.0
2016-Feb-04 16:25N 55°17' E 014°48'0 0.0
2016-Feb-04 15:25N 55°17' E 014°48'0 0.0
2016-Feb-04 14:13N 55°17' E 014°48'0 0.0
2016-Feb-04 13:13N 55°17' E 014°48'0 0.0
2016-Feb-04 12:19N 55°17' E 014°48'0 0.0
2016-Feb-04 11:31N 55°17' E 014°48'0 0.0
2016-Feb-04 09:31N 55°17' E 014°48'0 0.0
2016-Feb-04 08:25N 55°17' E 014°48'0 0.0
2016-Feb-04 07:31N 55°17' E 014°48'0 0.0
2016-Feb-04 06:25N 55°17' E 014°48'0 0.0
2016-Feb-04 05:25N 55°17' E 014°48'0 0.0
2016-Feb-04 04:31N 55°17' E 014°48'0 0.0
2016-Feb-04 03:31N 55°17' E 014°48'0 0.0
2016-Feb-04 02:25N 55°17' E 014°48'0 0.0
2016-Feb-04 01:25N 55°17' E 014°48'0 0.0
2016-Feb-04 00:31N 55°17' E 014°48'0 0.0
2016-Feb-03 23:12N 55°17' E 014°48'0 0.0
2016-Feb-03 22:30N 55°17' E 014°48'0 0.0
2016-Feb-03 21:30N 55°17' E 014°48'0 0.0
2016-Feb-03 20:24N 55°17' E 014°48'0 0.0
2016-Feb-03 19:30N 55°17' E 014°48'0 0.0
2016-Feb-03 18:30N 55°17' E 014°48'0 0.0
2016-Feb-03 17:30N 55°17' E 014°48'0 0.0
2016-Feb-03 16:30N 55°17' E 014°48'0 0.0
2016-Feb-03 15:24N 55°17' E 014°48'2 0.8
2016-Feb-03 13:33N 55°17' E 014°51'2 0.4
2016-Feb-03 09:29N 55°17' E 014°48'0 0.0
2016-Feb-03 08:23N 55°17' E 014°48'0 0.0
2016-Feb-03 07:05N 55°17' E 014°48'0 0.0
2016-Feb-03 06:29N 55°17' E 014°48'0 0.0
2016-Feb-03 05:23N 55°17' E 014°48'0 0.0
2016-Feb-03 04:29N 55°17' E 014°48'0 0.0
2016-Feb-03 03:26N 55°17' E 014°48'0 0.0
2016-Feb-03 02:33N 55°17' E 014°48'0 0.0
2016-Feb-03 01:33N 55°17' E 014°48'0 0.0
2016-Feb-03 00:33N 55°17' E 014°48'0 0.0
2016-Feb-02 23:33N 55°17' E 014°48'0 0.0
2016-Feb-02 22:28N 55°17' E 014°48'0 0.0
2016-Feb-02 21:28N 55°17' E 014°48'0 0.0
2016-Feb-02 20:28N 55°17' E 014°48'0 0.0
2016-Feb-02 19:28N 55°17' E 014°48'0 0.0
2016-Feb-02 18:28N 55°17' E 014°48'0 0.0
2016-Feb-02 17:28N 55°17' E 014°48'3 3.2
2016-Feb-02 16:34N 55°17' E 014°53'3 2.8
2016-Feb-02 15:32N 55°17' E 014°48'0 0.0
2016-Feb-02 14:32N 55°17' E 014°48'0 0.0
2016-Feb-02 13:26N 55°17' E 014°48'0 0.0
2016-Feb-02 12:32N 55°17' E 014°48'0 0.0
2016-Feb-02 11:32N 55°17' E 014°48'0 0.0
2016-Feb-02 10:26N 55°17' E 014°48'0 0.0
2016-Feb-02 09:32N 55°17' E 014°48'1 1.1
2016-Feb-02 08:33N 55°17' E 014°50'1 0.8
2016-Feb-02 07:09N 55°17' E 014°48'0 0.0
2016-Feb-02 06:33N 55°17' E 014°48'0 0.0
2016-Feb-02 05:27N 55°17' E 014°48'0 0.0
2016-Feb-02 04:33N 55°17' E 014°48'0 0.0
2016-Feb-02 02:09N 55°17' E 014°48'0 0.0
2016-Feb-02 01:33N 55°17' E 014°48'0 0.0
2016-Feb-02 00:21N 55°17' E 014°48'0 0.0
2016-Feb-01 23:27N 55°17' E 014°48'0 0.0
2016-Feb-01 22:27N 55°17' E 014°48'0 0.0
2016-Feb-01 21:29N 55°17' E 014°48'0 0.0
2016-Feb-01 20:29N 55°17' E 014°48'0 0.0
2016-Feb-01 19:31N 55°17' E 014°48'0 0.0
2016-Feb-01 18:31N 55°17' E 014°48'0 0.0
2016-Feb-01 17:31N 55°17' E 014°48'0 0.0
2016-Feb-01 16:31N 55°17' E 014°48'0 0.0
2016-Feb-01 15:33N 55°17' E 014°48'0 0.0
2016-Feb-01 14:33N 55°17' E 014°48'0 0.0
2016-Feb-01 13:33N 55°17' E 014°48'0 0.0
2016-Feb-01 12:33N 55°17' E 014°48'1 1.4
2016-Feb-01 11:34N 55°18' E 014°49'1 1.4
2016-Feb-01 10:33N 55°17' E 014°48'0 0.0
2016-Feb-01 09:32N 55°17' E 014°48'0 0.0
2016-Feb-01 07:32N 55°17' E 014°48'1 1.4
2016-Feb-01 06:33N 55°18' E 014°50'1 1.2
2016-Feb-01 05:28N 55°17' E 014°48'0 0.0
2016-Feb-01 04:28N 55°17' E 014°48'0 0.0
2016-Feb-01 03:28N 55°17' E 014°48'0 0.0
2016-Feb-01 02:28N 55°17' E 014°48'0 0.0
2016-Feb-01 01:28N 55°17' E 014°48'0 0.0
2016-Feb-01 00:22N 55°17' E 014°48'0 0.0
2016-Jan-31 23:28N 55°17' E 014°48'0 0.0
2016-Jan-31 22:28N 55°17' E 014°48'0 0.0
2016-Jan-31 21:28N 55°17' E 014°48'1 0.8
2016-Jan-31 20:33N 55°17' E 014°49'1 0.7
2016-Jan-31 19:30N 55°17' E 014°48'0 0.0
2016-Jan-31 18:30N 55°17' E 014°48'0 0.0
2016-Jan-31 17:12N 55°17' E 014°48'0 0.0
2016-Jan-31 16:30N 55°17' E 014°48'0 0.0
2016-Jan-31 15:23N 55°17' E 014°48'0 0.0
2016-Jan-31 14:29N 55°17' E 014°48'0 0.0
2016-Jan-31 13:29N 55°17' E 014°48'0 0.0
2016-Jan-31 12:29N 55°17' E 014°48'0 0.0
2016-Jan-31 11:29N 55°17' E 014°48'0 0.0
2016-Jan-31 10:29N 55°17' E 014°48'0 0.0
2016-Jan-31 09:29N 55°17' E 014°48'0 0.0
2016-Jan-31 08:23N 55°17' E 014°48'0 0.0
2016-Jan-31 07:33N 55°17' E 014°48'0 0.0
2016-Jan-31 05:33N 55°17' E 014°48'0 0.0
2016-Jan-31 03:21N 55°17' E 014°48'0 0.0
2016-Jan-31 02:27N 55°17' E 014°48'0 0.0
2016-Jan-31 01:21N 55°17' E 014°48'0 0.0
2016-Jan-31 00:33N 55°17' E 014°48'0 0.0
2016-Jan-30 23:33N 55°17' E 014°48'0 0.0
2016-Jan-30 22:33N 55°17' E 014°48'  
Track history (hours):
 
Tides and Currents Weather Stations Pressure Air Temp Water Temp Dewpoint Dewpoint Depression Visibility Wind Speed Wind Dir Waves Ship Positions

Mars

Last reported at 2016-Feb-09 22:29 UTC. Time now 2016-Feb-09 22:35 UTC.
Position N 55°17' E 014°48'.

Length 14 m; draft 1.7 m.

Type: Pilot. MMSI: 219001058.

Date/timePositionNaut miles runAvg speedWind from/ knotsBaromVisibWave heightAir tempDewpointWater temp
2016-Feb-09 22:29N 55°17' E 014°48'0 0.0
2016-Feb-09 21:29N 55°17' E 014°48'0 0.0
2016-Feb-09 20:17N 55°17' E 014°48'0 0.0
2016-Feb-09 19:17N 55°17' E 014°48'0 0.0
2016-Feb-09 18:29N 55°17' E 014°48'0 0.0
2016-Feb-09 17:25N 55°17' E 014°48'0 0.0
2016-Feb-09 16:26N 55°17' E 014°48'0 0.0
2016-Feb-09 15:32N 55°17' E 014°48'0 0.0
2016-Feb-09 14:26N 55°17' E 014°48'0 0.0
2016-Feb-09 13:20N 55°17' E 014°48'0 0.0
2016-Feb-09 12:32N 55°17' E 014°48'0 0.0
2016-Feb-09 11:32N 55°17' E 014°48'2 1.9
2016-Feb-09 10:33N 55°18' E 014°49'2 1.8
2016-Feb-09 09:32N 55°17' E 014°48'0 0.0
2016-Feb-09 08:32N 55°17' E 014°48'2 2.1
2016-Feb-09 07:33N 55°17' E 014°52'2 1.9
2016-Feb-09 06:28N 55°17' E 014°48'0 0.0
2016-Feb-09 05:28N 55°17' E 014°48'0 0.0
2016-Feb-09 04:22N 55°17' E 014°48'0 0.0
2016-Feb-09 03:28N 55°17' E 014°48'0 0.0
2016-Feb-09 02:28N 55°17' E 014°48'0 0.0
2016-Feb-09 01:34N 55°17' E 014°48'0 0.0
2016-Feb-09 00:27N 55°17' E 014°48'0 0.0
2016-Feb-08 23:33N 55°17' E 014°48'2 1.9
2016-Feb-08 22:34N 55°18' E 014°46'2 1.8
2016-Feb-08 21:31N 55°17' E 014°48'0 0.0
2016-Feb-08 20:25N 55°17' E 014°48'0 0.0
2016-Feb-08 19:31N 55°17' E 014°48'0 0.0
2016-Feb-08 18:31N 55°17' E 014°48'0 0.0
2016-Feb-08 17:31N 55°17' E 014°48'0 0.0
2016-Feb-08 16:31N 55°17' E 014°48'0 0.0
2016-Feb-08 15:31N 55°17' E 014°48'0 0.0
2016-Feb-08 14:31N 55°17' E 014°48'1 1.0
2016-Feb-08 13:33N 55°18' E 014°49'1 0.8
2016-Feb-08 12:22N 55°17' E 014°48'0 0.0
2016-Feb-08 11:28N 55°17' E 014°48'0 0.0
2016-Feb-08 10:28N 55°17' E 014°48'0 0.0
2016-Feb-08 09:16N 55°17' E 014°48'0 0.0
2016-Feb-08 08:28N 55°17' E 014°48'0 0.0
2016-Feb-08 05:28N 55°17' E 014°48'0 0.0
2016-Feb-08 04:28N 55°17' E 014°48'0 0.0
2016-Feb-08 03:28N 55°17' E 014°48'0 0.0
2016-Feb-08 02:28N 55°17' E 014°48'0 0.0
2016-Feb-08 01:28N 55°17' E 014°48'0 0.0
2016-Feb-08 00:28N 55°17' E 014°48'0 0.0
2016-Feb-07 23:22N 55°17' E 014°48'0 0.0
2016-Feb-07 22:28N 55°17' E 014°48'0 0.0
2016-Feb-07 21:28N 55°17' E 014°48'0 0.0
2016-Feb-07 20:28N 55°17' E 014°48'0 0.0
2016-Feb-07 19:33N 55°17' E 014°48'0 0.0
2016-Feb-07 18:33N 55°17' E 014°48'0 0.0
2016-Feb-07 17:31N 55°17' E 014°48'0 0.0
2016-Feb-07 16:31N 55°17' E 014°48'0 0.0
2016-Feb-07 15:31N 55°17' E 014°48'0 0.0
2016-Feb-07 14:19N 55°17' E 014°48'0 0.0
2016-Feb-07 13:31N 55°17' E 014°48'0 0.0
2016-Feb-07 11:22N 55°17' E 014°48'0 0.0
2016-Feb-07 10:22N 55°17' E 014°48'0 0.0
2016-Feb-07 09:28N 55°17' E 014°48'0 0.0
2016-Feb-07 08:22N 55°17' E 014°48'0 0.0
2016-Feb-07 07:28N 55°17' E 014°48'0 0.0
2016-Feb-07 06:34N 55°17' E 014°48'0 0.0
2016-Feb-07 05:33N 55°17' E 014°48'0 0.0
2016-Feb-07 04:29N 55°17' E 014°48'0 0.0
2016-Feb-07 03:32N 55°17' E 014°48'0 0.0
2016-Feb-07 02:32N 55°17' E 014°48'0 0.0
2016-Feb-07 01:32N 55°17' E 014°48'3 3.4
2016-Feb-07 00:33N 55°20' E 014°46'3 3.2
2016-Feb-06 23:31N 55°17' E 014°48'0 0.0
2016-Feb-06 22:20N 55°17' E 014°48'0 0.0
2016-Feb-06 21:32N 55°17' E 014°48'0 0.0
2016-Feb-06 20:32N 55°17' E 014°48'0 0.0
2016-Feb-06 19:20N 55°17' E 014°48'0 0.0
2016-Feb-06 18:32N 55°17' E 014°48'1 1.1
2016-Feb-06 17:33N 55°18' E 014°48'1 1.0
2016-Feb-06 16:29N 55°17' E 014°48'0 0.0
2016-Feb-06 15:29N 55°17' E 014°48'0 0.0
2016-Feb-06 14:23N 55°17' E 014°48'0 0.0
2016-Feb-06 13:29N 55°17' E 014°48'0 0.0
2016-Feb-06 11:32N 55°17' E 014°48'0 0.0
2016-Feb-06 10:13N 55°17' E 014°48'0 0.0
2016-Feb-06 09:25N 55°17' E 014°48'0 0.0
2016-Feb-06 08:25N 55°17' E 014°48'0 0.0
2016-Feb-06 07:32N 55°17' E 014°48'0 0.0
2016-Feb-06 06:19N 55°17' E 014°48'0 0.0
2016-Feb-06 05:31N 55°17' E 014°48'0 0.0
2016-Feb-06 04:31N 55°17' E 014°48'0 0.0
2016-Feb-06 03:31N 55°17' E 014°48'0 0.0
2016-Feb-06 02:31N 55°17' E 014°48'0 0.0
2016-Feb-06 01:31N 55°17' E 014°48'0 0.0
2016-Feb-06 00:31N 55°17' E 014°48'2 2.1
2016-Feb-05 23:34N 55°17' E 014°52'2 2.0
2016-Feb-05 22:33N 55°17' E 014°48'0 0.0
2016-Feb-05 21:33N 55°17' E 014°48'0 0.0
2016-Feb-05 20:33N 55°17' E 014°48'0 0.0
2016-Feb-05 19:33N 55°17' E 014°48'0 0.0
2016-Feb-05 18:04N 55°17' E 014°48'0 0.0
2016-Feb-05 17:33N 55°17' E 014°48'0 0.0
2016-Feb-05 16:32N 55°17' E 014°48'0 0.0
2016-Feb-05 15:31N 55°17' E 014°48'0 0.0
2016-Feb-05 14:33N 55°17' E 014°48'0 0.0
2016-Feb-05 13:33N 55°17' E 014°48'0 0.0
2016-Feb-05 12:32N 55°17' E 014°48'1 1.3
2016-Feb-05 11:33N 55°17' E 014°50'1 0.6
2016-Feb-05 09:24N 55°17' E 014°48'0 0.0
2016-Feb-05 08:05N 55°17' E 014°48'0 0.0
2016-Feb-05 07:29N 55°17' E 014°48'0 0.0
2016-Feb-05 06:29N 55°17' E 014°48'0 0.0
2016-Feb-05 05:29N 55°17' E 014°48'0 0.0
2016-Feb-05 04:17N 55°17' E 014°48'0 0.0
2016-Feb-05 03:29N 55°17' E 014°48'0 0.0
2016-Feb-05 02:29N 55°17' E 014°48'0 0.0
2016-Feb-05 01:29N 55°17' E 014°48'0 0.0
2016-Feb-05 00:29N 55°17' E 014°48'0 0.0
2016-Feb-04 23:23N 55°17' E 014°48'0 0.0
2016-Feb-04 22:33N 55°17' E 014°48'0 0.0
2016-Feb-04 21:33N 55°17' E 014°48'0 0.0
2016-Feb-04 20:33N 55°17' E 014°48'0 0.0
2016-Feb-04 19:33N 55°17' E 014°48'0 0.0
2016-Feb-04 18:13N 55°17' E 014°48'0 0.0
2016-Feb-04 17:19N 55°17' E 014°48'0 0.0
2016-Feb-04 16:25N 55°17' E 014°48'0 0.0
2016-Feb-04 15:25N 55°17' E 014°48'0 0.0
2016-Feb-04 14:13N 55°17' E 014°48'0 0.0
2016-Feb-04 13:13N 55°17' E 014°48'0 0.0
2016-Feb-04 12:19N 55°17' E 014°48'0 0.0
2016-Feb-04 11:31N 55°17' E 014°48'0 0.0
2016-Feb-04 09:31N 55°17' E 014°48'0 0.0
2016-Feb-04 08:25N 55°17' E 014°48'0 0.0
2016-Feb-04 07:31N 55°17' E 014°48'0 0.0
2016-Feb-04 06:25N 55°17' E 014°48'0 0.0
2016-Feb-04 05:25N 55°17' E 014°48'0 0.0
2016-Feb-04 04:31N 55°17' E 014°48'0 0.0
2016-Feb-04 03:31N 55°17' E 014°48'0 0.0
2016-Feb-04 02:25N 55°17' E 014°48'0 0.0
2016-Feb-04 01:25N 55°17' E 014°48'0 0.0
2016-Feb-04 00:31N 55°17' E 014°48'0 0.0
2016-Feb-03 23:12N 55°17' E 014°48'0 0.0
2016-Feb-03 22:30N 55°17' E 014°48'0 0.0
2016-Feb-03 21:30N 55°17' E 014°48'0 0.0
2016-Feb-03 20:24N 55°17' E 014°48'0 0.0
2016-Feb-03 19:30N 55°17' E 014°48'0 0.0
2016-Feb-03 18:30N 55°17' E 014°48'0 0.0
2016-Feb-03 17:30N 55°17' E 014°48'0 0.0
2016-Feb-03 16:30N 55°17' E 014°48'0 0.0
2016-Feb-03 15:24N 55°17' E 014°48'2 0.8
2016-Feb-03 13:33N 55°17' E 014°51'2 0.4
2016-Feb-03 09:29N 55°17' E 014°48'0 0.0
2016-Feb-03 08:23N 55°17' E 014°48'0 0.0
2016-Feb-03 07:05N 55°17' E 014°48'0 0.0
2016-Feb-03 06:29N 55°17' E 014°48'0 0.0
2016-Feb-03 05:23N 55°17' E 014°48'0 0.0
2016-Feb-03 04:29N 55°17' E 014°48'0 0.0
2016-Feb-03 03:26N 55°17' E 014°48'0 0.0
2016-Feb-03 02:33N 55°17' E 014°48'0 0.0
2016-Feb-03 01:33N 55°17' E 014°48'0 0.0
2016-Feb-03 00:33N 55°17' E 014°48'0 0.0
2016-Feb-02 23:33N 55°17' E 014°48'0 0.0
2016-Feb-02 22:28N 55°17' E 014°48'0 0.0
2016-Feb-02 21:28N 55°17' E 014°48'0 0.0
2016-Feb-02 20:28N 55°17' E 014°48'0 0.0
2016-Feb-02 19:28N 55°17' E 014°48'0 0.0
2016-Feb-02 18:28N 55°17' E 014°48'0 0.0
2016-Feb-02 17:28N 55°17' E 014°48'3 3.2
2016-Feb-02 16:34N 55°17' E 014°53'3 2.8
2016-Feb-02 15:32N 55°17' E 014°48'0 0.0
2016-Feb-02 14:32N 55°17' E 014°48'0 0.0
2016-Feb-02 13:26N 55°17' E 014°48'0 0.0
2016-Feb-02 12:32N 55°17' E 014°48'0 0.0
2016-Feb-02 11:32N 55°17' E 014°48'0 0.0
2016-Feb-02 10:26N 55°17' E 014°48'0 0.0
2016-Feb-02 09:32N 55°17' E 014°48'1 1.1
2016-Feb-02 08:33N 55°17' E 014°50'1 0.8
2016-Feb-02 07:09N 55°17' E 014°48'0 0.0
2016-Feb-02 06:33N 55°17' E 014°48'0 0.0
2016-Feb-02 05:27N 55°17' E 014°48'0 0.0
2016-Feb-02 04:33N 55°17' E 014°48'0 0.0
2016-Feb-02 02:09N 55°17' E 014°48'0 0.0
2016-Feb-02 01:33N 55°17' E 014°48'0 0.0
2016-Feb-02 00:21N 55°17' E 014°48'0 0.0
2016-Feb-01 23:27N 55°17' E 014°48'0 0.0
2016-Feb-01 22:27N 55°17' E 014°48'0 0.0
2016-Feb-01 21:29N 55°17' E 014°48'0 0.0
2016-Feb-01 20:29N 55°17' E 014°48'0 0.0
2016-Feb-01 19:31N 55°17' E 014°48'0 0.0
2016-Feb-01 18:31N 55°17' E 014°48'0 0.0
2016-Feb-01 17:31N 55°17' E 014°48'0 0.0
2016-Feb-01 16:31N 55°17' E 014°48'0 0.0
2016-Feb-01 15:33N 55°17' E 014°48'0 0.0
2016-Feb-01 14:33N 55°17' E 014°48'0 0.0
2016-Feb-01 13:33N 55°17' E 014°48'0 0.0
2016-Feb-01 12:33N 55°17' E 014°48'1 1.4
2016-Feb-01 11:34N 55°18' E 014°49'1 1.4
2016-Feb-01 10:33N 55°17' E 014°48'0 0.0
2016-Feb-01 09:32N 55°17' E 014°48'0 0.0
2016-Feb-01 07:32N 55°17' E 014°48'1 1.4
2016-Feb-01 06:33N 55°18' E 014°50'1 1.2
2016-Feb-01 05:28N 55°17' E 014°48'0 0.0
2016-Feb-01 04:28N 55°17' E 014°48'0 0.0
2016-Feb-01 03:28N 55°17' E 014°48'0 0.0
2016-Feb-01 02:28N 55°17' E 014°48'0 0.0
2016-Feb-01 01:28N 55°17' E 014°48'0 0.0
2016-Feb-01 00:22N 55°17' E 014°48'0 0.0
2016-Jan-31 23:28N 55°17' E 014°48'0 0.0
2016-Jan-31 22:28N 55°17' E 014°48'0 0.0
2016-Jan-31 21:28N 55°17' E 014°48'1 0.8
2016-Jan-31 20:33N 55°17' E 014°49'1 0.7
2016-Jan-31 19:30N 55°17' E 014°48'0 0.0
2016-Jan-31 18:30N 55°17' E 014°48'0 0.0
2016-Jan-31 17:12N 55°17' E 014°48'0 0.0
2016-Jan-31 16:30N 55°17' E 014°48'0 0.0
2016-Jan-31 15:23N 55°17' E 014°48'0 0.0
2016-Jan-31 14:29N 55°17' E 014°48'0 0.0
2016-Jan-31 13:29N 55°17' E 014°48'0 0.0
2016-Jan-31 12:29N 55°17' E 014°48'0 0.0
2016-Jan-31 11:29N 55°17' E 014°48'0 0.0
2016-Jan-31 10:29N 55°17' E 014°48'0 0.0
2016-Jan-31 09:29N 55°17' E 014°48'0 0.0
2016-Jan-31 08:23N 55°17' E 014°48'0 0.0
2016-Jan-31 07:33N 55°17' E 014°48'0 0.0
2016-Jan-31 05:33N 55°17' E 014°48'0 0.0
2016-Jan-31 03:21N 55°17' E 014°48'0 0.0
2016-Jan-31 02:27N 55°17' E 014°48'0 0.0
2016-Jan-31 01:21N 55°17' E 014°48'0 0.0
2016-Jan-31 00:33N 55°17' E 014°48'0 0.0
2016-Jan-30 23:33N 55°17' E 014°48'0 0.0
2016-Jan-30 22:33N 55°17' E 014°48'  

Dump ship's entire track history